Time;durP1;ratioP1;P1;durP2;ratioP2;P2;SDS_P1;SDS_P2;PMS_P1;PMS_P2;Temp;Humidity;BMP_temperature;BMP_pressure;BME280_temperature;BME280_humidity;BME280_pressure;Samples;Min_cycle;Max_cycle;Signal;HPM_P1;HPM_P2
2023/05/26 05:41:40;;;;;;;;;21.25;14.00;;;;;;;;6350203;22;45721;-75
2023/05/26 05:44:05;;;;;;;;;26.25;17.50;;;;;;;;6370038;22;45273;-76
2023/05/26 05:46:30;;;;;;;;;22.00;18.25;;;;;;;;6370996;22;45183;-75
2023/05/26 05:48:56;;;;;;;;;11.75;8.00;;;;;;;;6370423;22;46144;-75
2023/05/26 05:51:21;;;;;;;;;17.75;16.00;;;;;;;;6370153;22;45222;-76
2023/05/26 05:53:46;;;;;;;;;19.00;16.00;;;;;;;;6370987;22;45082;-75
2023/05/26 05:56:11;;;;;;;;;18.50;14.00;;;;;;;;6340544;22;45103;-75
2023/05/26 05:58:37;;;;;;;;;13.50;11.25;;;;;;;;6370833;22;45389;-74
2023/05/26 06:01:02;;;;;;;;;22.25;17.00;;;;;;;;6341937;22;45247;-73
2023/05/26 06:03:27;;;;;;;;;24.50;17.75;;;;;;;;6371570;22;45147;-73
2023/05/26 06:05:52;;;;;;;;;22.00;15.50;;;;;;;;6341926;22;45270;-74
2023/05/26 06:08:18;;;;;;;;;23.75;16.75;;;;;;;;6370079;22;46273;-73
2023/05/26 06:10:43;;;;;;;;;19.00;16.25;;;;;;;;6341117;22;45285;-73
2023/05/26 06:13:08;;;;;;;;;22.00;17.75;;;;;;;;6341469;22;45233;-75
2023/05/26 06:15:34;;;;;;;;;22.75;18.25;;;;;;;;6370430;22;45210;-73
2023/05/26 06:17:59;;;;;;;;;24.50;19.00;;;;;;;;6370771;22;45297;-73
2023/05/26 06:20:25;;;;;;;;;20.50;16.50;;;;;;;;6370916;22;45233;-74
2023/05/26 06:22:50;;;;;;;;;22.00;15.75;;;;;;;;6342446;22;45310;-73
2023/05/26 06:25:15;;;;;;;;;23.00;17.25;;;;;;;;6370986;22;45557;-73
2023/05/26 06:27:40;;;;;;;;;17.25;14.75;;;;;;;;6372149;22;45357;-73
2023/05/26 06:30:06;;;;;;;;;20.75;17.00;;;;;;;;6343366;22;45227;-73
2023/05/26 06:32:31;;;;;;;;;18.75;16.25;;;;;;;;6372456;22;45336;-75
2023/05/26 06:34:56;;;;;;;;;23.00;18.50;;;;;;;;6342832;22;45660;-74
2023/05/26 06:37:21;;;;;;;;;20.50;15.25;;;;;;;;6372008;22;45210;-74
2023/05/26 06:39:46;;;;;;;;;25.25;18.25;;;;;;;;6371562;22;45084;-73
2023/05/26 06:42:12;;;;;;;;;15.50;13.00;;;;;;;;6371789;22;45347;-74
2023/05/26 06:44:37;;;;;;;;;20.75;15.75;;;;;;;;6371472;22;45166;-73
2023/05/26 06:47:02;;;;;;;;;18.75;16.00;;;;;;;;6369151;22;46502;-73
2023/05/26 06:49:27;;;;;;;;;18.75;17.00;;;;;;;;6342195;22;45281;-73
2023/05/26 06:51:53;;;;;;;;;19.00;14.50;;;;;;;;6371511;22;45375;-73
2023/05/26 06:54:18;;;;;;;;;21.00;15.00;;;;;;;;6371453;22;45337;-74
2023/05/26 06:56:43;;;;;;;;;18.33;14.67;;;;;;;;6370642;22;45493;-74
2023/05/26 06:59:09;;;;;;;;;21.33;14.00;;;;;;;;6342986;22;45356;-74
2023/05/26 07:01:34;;;;;;;;;18.00;17.33;;;;;;;;6371403;22;45503;-72
2023/05/26 07:03:59;;;;;;;;;19.67;16.67;;;;;;;;6371859;22;45423;-73
2023/05/26 07:06:24;;;;;;;;;18.33;15.00;;;;;;;;6371384;22;45215;-72
2023/05/26 07:08:49;;;;;;;;;14.67;14.67;;;;;;;;6342423;22;45210;-73
2023/05/26 07:11:15;;;;;;;;;21.67;16.00;;;;;;;;6371426;22;45302;-72
2023/05/26 07:13:40;;;;;;;;;23.67;16.00;;;;;;;;6371901;22;45303;-73
2023/05/26 07:16:05;;;;;;;;;20.00;17.00;;;;;;;;6370875;22;45415;-73
2023/05/26 07:18:30;;;;;;;;;14.67;14.67;;;;;;;;6371697;22;45163;-73
2023/05/26 07:20:56;;;;;;;;;19.00;17.00;;;;;;;;6370618;22;45240;-73
2023/05/26 07:23:21;;;;;;;;;17.00;13.00;;;;;;;;6342755;22;45451;-73
2023/05/26 07:25:46;;;;;;;;;18.67;15.67;;;;;;;;6370570;22;45297;-73
2023/05/26 07:28:11;;;;;;;;;19.00;12.00;;;;;;;;6371576;22;45138;-73
2023/05/26 07:30:37;;;;;;;;;20.00;16.33;;;;;;;;6371208;22;45087;-72
2023/05/26 07:33:02;;;;;;;;;17.33;15.33;;;;;;;;6371276;22;45209;-73
2023/05/26 07:35:27;;;;;;;;;21.33;17.00;;;;;;;;6370972;22;45300;-74
2023/05/26 07:37:52;;;;;;;;;13.00;12.33;;;;;;;;6370889;22;45202;-73
2023/05/26 07:40:18;;;;;;;;;16.33;14.33;;;;;;;;6370100;22;45356;-74
2023/05/26 07:42:44;;;;;;;;;16.33;13.00;;;;;;;;6370939;22;45195;-75
2023/05/26 07:45:09;;;;;;;;;19.67;13.33;;;;;;;;6371275;22;45371;-74
2023/05/26 07:47:35;;;;;;;;;15.67;15.33;;;;;;;;6371563;22;45205;-74
2023/05/26 07:50:01;;;;;;;;;18.33;16.33;;;;;;;;6342280;22;45302;-73
2023/05/26 07:52:26;;;;;;;;;17.33;13.33;;;;;;;;6371912;22;45385;-74
2023/05/26 07:54:52;;;;;;;;;15.67;12.67;;;;;;;;6341423;22;46853;-73
2023/05/26 07:57:18;;;;;;;;;18.67;17.00;;;;;;;;6343260;22;45757;-73
2023/05/26 07:59:43;;;;;;;;;16.00;14.67;;;;;;;;6342971;22;45309;-74
2023/05/26 08:02:10;;;;;;;;;13.00;13.00;;;;;;;;6370409;22;45517;-76
2023/05/26 08:04:35;;;;;;;;;15.00;13.67;;;;;;;;6370578;22;46247;-74
2023/05/26 08:07:00;;;;;;;;;17.00;13.67;;;;;;;;6371563;22;45193;-74
2023/05/26 08:09:25;;;;;;;;;17.33;14.67;;;;;;;;6341514;22;45195;-75
2023/05/26 08:11:51;;;;;;;;;19.33;15.67;;;;;;;;6342667;22;46406;-75
2023/05/26 08:14:17;;;;;;;;;16.00;16.00;;;;;;;;6371163;22;46190;-76
2023/05/26 08:16:42;;;;;;;;;14.33;14.00;;;;;;;;6370761;22;45155;-75
2023/05/26 08:19:08;;;;;;;;;15.00;12.00;;;;;;;;6371467;22;45127;-75
2023/05/26 08:21:33;;;;;;;;;14.33;13.33;;;;;;;;6371113;22;45187;-74
2023/05/26 08:23:58;;;;;;;;;19.00;13.00;;;;;;;;6371769;22;45210;-75
2023/05/26 08:26:23;;;;;;;;;10.67;10.33;;;;;;;;6371279;22;45256;-75
2023/05/26 08:28:48;;;;;;;;;19.67;15.00;;;;;;;;6371874;22;45352;-74
2023/05/26 08:31:14;;;;;;;;;17.00;11.00;;;;;;;;6371388;22;45409;-73
2023/05/26 08:33:39;;;;;;;;;17.33;13.00;;;;;;;;6371287;22;46435;-74
2023/05/26 08:36:05;;;;;;;;;11.67;11.67;;;;;;;;6371504;22;45286;-74
2023/05/26 08:38:30;;;;;;;;;16.67;14.00;;;;;;;;6372021;22;45172;-74
2023/05/26 08:40:56;;;;;;;;;19.00;14.67;;;;;;;;6370744;22;45518;-74
2023/05/26 08:43:26;;;;;;;;;16.67;14.67;;;;;;;;6371578;22;45390;-74
2023/05/26 08:45:52;;;;;;;;;18.67;12.33;;;;;;;;6371055;22;45174;-74
2023/05/26 08:48:18;;;;;;;;;10.67;10.67;;;;;;;;6371207;22;45283;-74
2023/05/26 08:50:45;;;;;;;;;14.67;14.00;;;;;;;;6371222;22;45468;-74
2023/05/26 08:53:11;;;;;;;;;13.67;12.67;;;;;;;;6371443;22;45415;-75
2023/05/26 08:55:36;;;;;;;;;10.33;8.67;;;;;;;;6370982;22;45207;-74
2023/05/26 08:58:01;;;;;;;;;13.00;12.33;;;;;;;;6371228;22;45430;-75
2023/05/26 09:00:30;;;;;;;;;17.00;12.67;;;;;;;;6342734;22;45878;-75
2023/05/26 09:03:01;;;;;;;;;12.33;12.33;;;;;;;;6342558;22;48166;-75
2023/05/26 09:05:28;;;;;;;;;12.00;11.33;;;;;;;;6342517;22;45489;-71
2023/05/26 09:07:53;;;;;;;;;11.33;9.00;;;;;;;;6371694;22;45273;-71
2023/05/26 09:10:45;;;;;;;;;13.25;11.00;;;;;;;;6370093;22;45235;-69
2023/05/26 09:13:13;;;;;;;;;13.50;11.75;;;;;;;;6363131;22;45220;-74
2023/05/26 09:15:38;;;;;;;;;15.00;13.75;;;;;;;;6342101;22;45228;-73
2023/05/26 09:18:07;;;;;;;;;18.50;14.75;;;;;;;;6371734;22;45479;-75
2023/05/26 09:20:38;;;;;;;;;14.25;12.00;;;;;;;;6371020;22;45164;-74
2023/05/26 09:23:03;;;;;;;;;13.75;12.75;;;;;;;;6370996;22;46533;-74
2023/05/26 09:25:40;;;;;;;;;14.25;13.00;;;;;;;;6370424;22;45297;-74
2023/05/26 09:28:06;;;;;;;;;15.50;11.25;;;;;;;;6370832;22;45288;-75
2023/05/26 09:30:36;;;;;;;;;18.00;12.25;;;;;;;;6370876;22;45222;-76
2023/05/26 09:33:02;;;;;;;;;16.25;14.25;;;;;;;;6342666;22;46114;-75
2023/05/26 09:35:33;;;;;;;;;14.50;13.25;;;;;;;;6342144;22;45247;-75
2023/05/26 09:37:58;;;;;;;;;11.75;11.75;;;;;;;;6371335;22;45368;-77
2023/05/26 09:40:24;;;;;;;;;16.50;11.25;;;;;;;;6369691;22;45080;-75
2023/05/26 09:42:52;;;;;;;;;15.25;13.25;;;;;;;;6370473;22;46388;-74
2023/05/26 09:45:18;;;;;;;;;15.50;14.00;;;;;;;;6370647;22;45278;-76
2023/05/26 09:47:43;;;;;;;;;16.50;13.00;;;;;;;;6371416;22;45554;-75
2023/05/26 09:50:08;;;;;;;;;16.75;12.25;;;;;;;;6370706;22;45383;-75
2023/05/26 09:52:34;;;;;;;;;15.75;13.50;;;;;;;;6370683;22;45333;-75
2023/05/26 09:54:59;;;;;;;;;13.75;13.00;;;;;;;;6340315;22;45223;-75
2023/05/26 09:57:25;;;;;;;;;18.50;14.00;;;;;;;;6342514;22;45211;-76
2023/05/26 09:59:53;;;;;;;;;14.00;13.00;;;;;;;;6371388;22;45337;-76
2023/05/26 10:02:20;;;;;;;;;14.75;12.25;;;;;;;;6371959;22;46283;-76
2023/05/26 10:04:46;;;;;;;;;13.25;12.00;;;;;;;;6370525;22;45251;-76
2023/05/26 10:07:11;;;;;;;;;13.50;12.50;;;;;;;;6372543;22;45126;-75
2023/05/26 10:09:37;;;;;;;;;13.50;10.25;;;;;;;;6372246;22;45321;-76
2023/05/26 10:12:05;;;;;;;;;12.75;9.50;;;;;;;;6344039;22;46932;-75
2023/05/26 10:14:31;;;;;;;;;5.00;3.00;;;;;;;;6372083;22;45516;-75
2023/05/26 10:16:56;;;;;;;;;15.50;14.00;;;;;;;;6371898;22;45338;-75
2023/05/26 10:19:21;;;;;;;;;16.25;13.00;;;;;;;;6372052;22;45226;-75
2023/05/26 10:21:51;;;;;;;;;14.75;14.25;;;;;;;;6372272;22;45151;-76
2023/05/26 10:24:30;;;;;;;;;16.80;11.20;;;;;;;;6372080;22;45395;-76
2023/05/26 10:27:00;;;;;;;;;12.50;12.25;;;;;;;;6342815;22;45267;-77
2023/05/26 10:29:34;;;;;;;;;11.50;11.00;;;;;;;;6372154;22;45091;-74
2023/05/26 10:32:00;;;;;;;;;16.25;13.50;;;;;;;;6371846;22;46181;-75
2023/05/26 10:34:45;;;;;;;;;11.00;10.50;;;;;;;;6372154;22;45084;-76
2023/05/26 10:37:14;;;;;;;;;15.50;14.25;;;;;;;;6372312;22;45189;-73
2023/05/26 10:39:40;;;;;;;;;11.25;10.25;;;;;;;;6371480;22;45316;-72
2023/05/26 10:42:16;;;;;;;;;12.80;11.00;;;;;;;;6341791;22;47479;-72
2023/05/26 10:44:43;;;;;;;;;18.60;14.00;;;;;;;;6370970;22;45242;-75
2023/05/26 10:47:13;;;;;;;;;13.00;12.75;;;;;;;;6372234;22;45206;-75
2023/05/26 10:49:38;;;;;;;;;15.00;12.00;;;;;;;;6371159;22;45273;-75
2023/05/26 10:52:09;;;;;;;;;14.00;13.00;;;;;;;;6372123;22;45390;-75
2023/05/26 10:54:34;;;;;;;;;13.20;12.60;;;;;;;;6343066;22;45152;-75
2023/05/26 10:56:59;;;;;;;;;13.75;12.50;;;;;;;;6372349;22;45089;-75
2023/05/26 10:59:33;;;;;;;;;11.50;11.25;;;;;;;;6371423;22;45140;-75
2023/05/26 11:02:03;;;;;;;;;17.00;13.00;;;;;;;;6342712;22;46800;-75
2023/05/26 11:04:41;;;;;;;;;12.80;10.80;;;;;;;;6343316;22;45371;-76
2023/05/26 11:07:14;;;;;;;;;12.25;11.00;;;;;;;;6372295;22;45217;-75
2023/05/26 11:09:53;;;;;;;;;13.50;12.25;;;;;;;;6371851;22;45568;-75
2023/05/26 11:12:19;;;;;;;;;14.40;11.60;;;;;;;;6371301;22;46074;-77
2023/05/26 11:14:45;;;;;;;;;13.80;12.60;;;;;;;;6343420;22;45267;-76
2023/05/26 11:17:11;;;;;;;;;15.25;13.25;;;;;;;;6372593;22;45406;-76
2023/05/26 11:19:37;;;;;;;;;15.20;12.00;;;;;;;;6370443;22;45290;-73
2023/05/26 11:22:04;;;;;;;;;16.00;13.40;;;;;;;;6372182;22;45309;-75
2023/05/26 11:24:30;;;;;;;;;13.60;13.60;;;;;;;;6371836;22;45250;-75
2023/05/26 11:26:55;;;;;;;;;12.75;9.50;;;;;;;;6372305;22;45259;-74
2023/05/26 11:29:21;;;;;;;;;15.25;13.00;;;;;;;;6371133;22;45160;-74
2023/05/26 11:31:49;;;;;;;;;16.00;14.20;;;;;;;;6372181;22;46172;-75
2023/05/26 11:34:14;;;;;;;;;14.20;13.80;;;;;;;;6371651;22;45280;-73
2023/05/26 11:36:40;;;;;;;;;11.25;11.25;;;;;;;;6343609;22;45289;-73
2023/05/26 11:39:06;;;;;;;;;13.50;12.75;;;;;;;;6344011;22;45519;-75
2023/05/26 11:41:31;;;;;;;;;10.75;10.75;;;;;;;;6370672;22;46085;-75
2023/05/26 11:43:57;;;;;;;;;12.50;11.50;;;;;;;;6344009;22;45328;-76
2023/05/26 11:46:23;;;;;;;;;14.00;11.50;;;;;;;;6372022;22;45248;-75
2023/05/26 11:48:49;;;;;;;;;13.40;10.20;;;;;;;;6372448;22;45458;-74
2023/05/26 11:51:17;;;;;;;;;14.00;10.20;;;;;;;;6370823;22;46110;-74
2023/05/26 11:53:44;;;;;;;;;14.60;12.20;;;;;;;;6372349;22;45141;-74
2023/05/26 11:56:10;;;;;;;;;12.00;11.20;;;;;;;;6371650;22;45292;-75
2023/05/26 11:58:37;;;;;;;;;17.50;13.00;;;;;;;;6372266;22;45817;-73
2023/05/26 12:01:04;;;;;;;;;16.00;8.40;;;;;;;;6342364;22;47879;-73
2023/05/26 12:03:33;;;;;;;;;15.80;13.80;;;;;;;;6368824;22;45426;-74
2023/05/26 12:06:10;;;;;;;;;14.20;11.80;;;;;;;;6342814;22;45252;-74
2023/05/26 12:08:51;;;;;;;;;11.60;11.00;;;;;;;;6342277;22;46746;-74
2023/05/26 12:11:21;;;;;;;;;11.60;11.60;;;;;;;;6370641;22;46060;-73
2023/05/26 12:13:47;;;;;;;;;14.80;12.20;;;;;;;;6372013;22;45359;-74
2023/05/26 12:16:22;;;;;;;;;15.80;13.20;;;;;;;;6371848;22;45294;-74
2023/05/26 12:18:50;;;;;;;;;15.20;13.00;;;;;;;;6342894;22;46050;-75
2023/05/26 12:21:15;;;;;;;;;21.60;12.20;;;;;;;;6342804;22;47377;-74
2023/05/26 12:23:41;;;;;;;;;14.75;12.50;;;;;;;;6371247;22;45285;-74
2023/05/26 12:26:13;;;;;;;;;15.00;12.50;;;;;;;;6342824;22;45285;-74
2023/05/26 17:31:48;;;;;;;;;9.50;7.50;;;;;;;;6315462;22;46650;-72
2023/05/26 17:34:14;;;;;;;;;14.00;9.33;;;;;;;;6371224;22;46533;-73
2023/05/26 17:36:40;;;;;;;;;9.25;8.00;;;;;;;;6371618;22;45250;-73
2023/05/26 17:39:05;;;;;;;;;11.25;9.75;;;;;;;;6342973;22;45261;-72
2023/05/26 17:41:30;;;;;;;;;8.33;8.33;;;;;;;;6341708;22;46856;-72
2023/05/26 17:43:55;;;;;;;;;11.67;10.00;;;;;;;;6343451;22;45286;-72
2023/05/26 17:46:21;;;;;;;;;11.00;10.33;;;;;;;;6371515;22;45228;-73
2023/05/26 17:48:46;;;;;;;;;10.33;9.33;;;;;;;;6372119;22;45381;-73
2023/05/26 17:51:11;;;;;;;;;11.67;11.00;;;;;;;;6342089;22;45733;-73
2023/05/26 17:53:36;;;;;;;;;10.33;9.00;;;;;;;;6372126;22;45210;-72
2023/05/26 17:56:02;;;;;;;;;11.00;11.00;;;;;;;;6371675;22;45359;-72
2023/05/26 17:58:28;;;;;;;;;16.00;13.33;;;;;;;;6343563;22;45465;-73
2023/05/26 18:00:53;;;;;;;;;17.67;15.67;;;;;;;;6371022;22;45240;-73
2023/05/26 18:03:18;;;;;;;;;14.00;9.00;;;;;;;;6371580;22;46229;-73
2023/05/26 18:05:43;;;;;;;;;12.33;10.33;;;;;;;;6341931;22;45231;-73
2023/05/26 18:08:09;;;;;;;;;12.00;11.00;;;;;;;;6371741;22;45209;-72
2023/05/26 18:10:34;;;;;;;;;14.33;13.00;;;;;;;;6341436;22;45940;-73
2023/05/26 18:12:59;;;;;;;;;10.67;10.67;;;;;;;;6371536;22;45459;-74
2023/05/26 18:15:25;;;;;;;;;9.33;9.33;;;;;;;;6371131;22;45248;-73
2023/05/26 18:17:50;;;;;;;;;13.33;11.33;;;;;;;;6371623;22;45219;-72
2023/05/26 18:20:15;;;;;;;;;14.67;10.67;;;;;;;;6371954;22;45228;-74
2023/05/26 18:22:40;;;;;;;;;11.00;9.33;;;;;;;;6372379;22;45256;-74
2023/05/26 18:25:07;;;;;;;;;11.00;8.00;;;;;;;;6372670;22;45192;-74
2023/05/26 18:27:32;;;;;;;;;7.00;7.00;;;;;;;;6373140;22;45261;-74
2023/05/26 18:29:59;;;;;;;;;12.00;11.00;;;;;;;;6344240;22;47374;-73
2023/05/26 18:32:25;;;;;;;;;10.00;8.33;;;;;;;;6343428;22;46484;-72
2023/05/26 18:34:50;;;;;;;;;14.67;10.00;;;;;;;;6373066;22;45093;-72
2023/05/26 18:37:15;;;;;;;;;10.67;6.67;;;;;;;;6372857;22;45221;-74
2023/05/26 18:39:40;;;;;;;;;12.67;11.67;;;;;;;;6344546;22;45700;-72
2023/05/26 18:42:06;;;;;;;;;12.67;12.00;;;;;;;;6372447;22;45407;-72
2023/05/26 18:44:31;;;;;;;;;15.67;13.00;;;;;;;;6372927;22;45230;-73
2023/05/26 18:46:57;;;;;;;;;11.67;10.00;;;;;;;;6372534;22;45187;-72
2023/05/26 18:49:22;;;;;;;;;12.33;11.67;;;;;;;;6373031;22;45420;-73
2023/05/26 18:51:47;;;;;;;;;14.00;9.33;;;;;;;;6343850;22;48280;-72
2023/05/26 18:54:13;;;;;;;;;10.00;8.33;;;;;;;;6373029;22;45203;-72
2023/05/26 18:56:38;;;;;;;;;14.67;10.33;;;;;;;;6344251;22;45249;-72
2023/05/26 18:59:03;;;;;;;;;10.67;9.00;;;;;;;;6372935;22;45459;-73
2023/05/26 19:01:28;;;;;;;;;9.00;8.00;;;;;;;;6371764;22;45663;-72
2023/05/26 19:03:54;;;;;;;;;10.00;10.00;;;;;;;;6372871;22;45266;-73
2023/05/26 19:06:19;;;;;;;;;10.00;7.67;;;;;;;;6372521;22;45188;-73
2023/05/26 19:08:44;;;;;;;;;10.00;10.00;;;;;;;;6344414;22;45729;-74
2023/05/26 19:11:09;;;;;;;;;8.33;7.67;;;;;;;;6372364;22;45345;-73
2023/05/26 19:13:35;;;;;;;;;12.00;9.00;;;;;;;;6373127;22;45239;-73
2023/05/26 19:16:01;;;;;;;;;8.33;8.00;;;;;;;;6343688;22;45272;-73
2023/05/26 19:18:26;;;;;;;;;7.00;7.00;;;;;;;;6373105;22;45264;-76
2023/05/26 19:20:51;;;;;;;;;13.00;9.67;;;;;;;;6342723;22;47485;-73
2023/05/26 19:23:16;;;;;;;;;10.33;8.00;;;;;;;;6372717;22;45262;-73
2023/05/26 19:25:42;;;;;;;;;10.00;9.00;;;;;;;;6373032;22;45234;-73
2023/05/26 19:28:07;;;;;;;;;10.67;9.00;;;;;;;;6372814;22;45280;-73
2023/05/26 19:30:32;;;;;;;;;14.67;10.00;;;;;;;;6372416;22;45530;-73
2023/05/26 19:32:57;;;;;;;;;15.67;11.67;;;;;;;;6371233;22;45262;-73
2023/05/26 19:35:23;;;;;;;;;11.33;10.33;;;;;;;;6373065;22;45242;-73
2023/05/26 19:37:48;;;;;;;;;17.33;9.33;;;;;;;;6343748;22;45607;-72
2023/05/26 19:40:13;;;;;;;;;11.67;9.00;;;;;;;;6342885;22;46511;-73
2023/05/26 19:42:38;;;;;;;;;12.67;11.00;;;;;;;;6372805;22;45222;-73
2023/05/26 19:45:04;;;;;;;;;13.00;12.33;;;;;;;;6372822;22;45220;-72
2023/05/26 19:47:30;;;;;;;;;12.67;10.33;;;;;;;;6372065;22;45209;-73
2023/05/26 19:49:57;;;;;;;;;12.33;11.00;;;;;;;;6372610;22;45267;-71
2023/05/26 19:52:22;;;;;;;;;14.67;10.67;;;;;;;;6344007;22;45242;-73
2023/05/26 19:54:47;;;;;;;;;17.33;12.67;;;;;;;;6372692;22;45162;-73
2023/05/26 19:57:12;;;;;;;;;14.00;11.33;;;;;;;;6372097;22;45159;-74
2023/05/26 19:59:38;;;;;;;;;14.00;11.67;;;;;;;;6372701;22;46194;-74
2023/05/26 20:02:03;;;;;;;;;11.33;11.33;;;;;;;;6343376;22;45815;-73
2023/05/26 20:04:28;;;;;;;;;14.00;11.33;;;;;;;;6373222;22;45619;-73
2023/05/26 20:06:53;;;;;;;;;12.00;10.00;;;;;;;;6343457;22;45940;-74
2023/05/26 20:09:19;;;;;;;;;9.67;9.33;;;;;;;;6373538;22;45259;-74
2023/05/26 20:11:44;;;;;;;;;13.67;11.33;;;;;;;;6344434;22;45358;-72
2023/05/26 20:14:09;;;;;;;;;17.00;11.33;;;;;;;;6344805;22;45214;-73
2023/05/26 20:16:35;;;;;;;;;9.33;6.00;;;;;;;;6372822;22;45111;-73
2023/05/26 20:19:00;;;;;;;;;13.00;12.33;;;;;;;;6373681;22;45212;-72
2023/05/26 20:21:25;;;;;;;;;10.00;10.00;;;;;;;;6372978;22;45324;-73
2023/05/26 20:23:50;;;;;;;;;8.33;6.00;;;;;;;;6373108;22;45175;-73
2023/05/26 20:26:16;;;;;;;;;10.00;8.67;;;;;;;;6372550;22;45265;-73
2023/05/26 20:28:41;;;;;;;;;13.00;11.00;;;;;;;;6344725;22;47347;-73
2023/05/26 20:31:07;;;;;;;;;11.00;9.33;;;;;;;;6371810;22;45310;-74
2023/05/26 20:33:33;;;;;;;;;17.67;14.00;;;;;;;;6344169;22;45301;-72
2023/05/26 20:35:59;;;;;;;;;17.00;10.33;;;;;;;;6343695;22;46913;-73
2023/05/26 20:38:24;;;;;;;;;13.67;10.33;;;;;;;;6343839;22;46500;-73
2023/05/26 20:40:50;;;;;;;;;14.00;11.67;;;;;;;;6371716;22;45137;-72
2023/05/26 20:43:15;;;;;;;;;10.67;9.00;;;;;;;;6370884;22;45197;-72
2023/05/26 20:45:41;;;;;;;;;14.33;11.67;;;;;;;;6371760;22;45499;-73
2023/05/26 20:48:06;;;;;;;;;14.33;11.33;;;;;;;;6343584;22;47998;-73
2023/05/26 20:50:31;;;;;;;;;14.67;11.00;;;;;;;;6343718;22;45218;-72
2023/05/26 20:52:56;;;;;;;;;12.33;10.33;;;;;;;;6344210;22;45426;-72
2023/05/26 20:55:22;;;;;;;;;10.33;8.00;;;;;;;;6343205;22;45976;-72
2023/05/26 20:57:47;;;;;;;;;11.33;10.00;;;;;;;;6372188;22;46276;-73
2023/05/26 21:00:12;;;;;;;;;13.33;9.67;;;;;;;;6372223;22;45143;-72
2023/05/26 21:02:38;;;;;;;;;9.67;9.67;;;;;;;;6372181;22;45352;-73
